createdAt,value
2023-02-25T00:01:25.410Z,97918.50
2023-02-25T00:03:56.655Z,97934.94
2023-02-25T00:06:25.987Z,97926.31
2023-02-25T00:08:54.261Z,97926.31
2023-02-25T00:11:21.798Z,97924.56
2023-02-25T00:13:48.724Z,97935.00
2023-02-25T00:16:16.323Z,97931.53
2023-02-25T00:18:46.827Z,97927.22
2023-02-25T00:21:16.265Z,97922.88
2023-02-25T00:23:45.180Z,97919.41
2023-02-25T00:26:12.385Z,97917.69
2023-02-25T00:28:40.474Z,97907.31
2023-02-25T00:31:09.263Z,97913.38
2023-02-25T00:33:36.204Z,97904.72
2023-02-25T00:36:06.611Z,97906.47
2023-02-25T00:38:33.109Z,97893.47
2023-02-25T00:40:59.611Z,97900.41
2023-02-25T00:43:26.130Z,97887.41
2023-02-25T00:45:52.793Z,97890.00
2023-02-25T00:48:19.282Z,97887.34
2023-02-25T00:50:45.844Z,97885.63
2023-02-25T00:53:12.513Z,97875.22
2023-02-25T00:55:40.006Z,97877.81
2023-02-25T00:58:06.909Z,97864.81
2023-02-25T01:00:46.537Z,97867.44
2023-02-25T01:03:17.768Z,97857.88
2023-02-25T01:05:49.469Z,97859.56
2023-02-25T01:08:20.263Z,97852.66
2023-02-25T01:10:47.965Z,97847.41
2023-02-25T01:13:15.789Z,97847.44
2023-02-25T01:15:42.613Z,97842.22
2023-02-25T01:18:09.102Z,97836.16
2023-02-25T01:20:39.747Z,97825.72
2023-02-25T01:23:07.240Z,97825.72
2023-02-25T01:25:33.809Z,97826.63
2023-02-25T01:28:00.587Z,97825.72
2023-02-25T01:30:27.162Z,97830.91
2023-02-25T01:32:53.779Z,97823.13
2023-02-25T01:35:20.365Z,97823.06
2023-02-25T01:37:47.699Z,97820.47
2023-02-25T01:40:17.214Z,97815.25
2023-02-25T01:42:47.463Z,97818.75
2023-02-25T01:45:23.373Z,97818.72
2023-02-25T01:47:54.609Z,97816.16
2023-02-25T01:50:25.374Z,97819.63
2023-02-25T01:52:53.851Z,97816.97
2023-02-25T01:55:20.521Z,97812.66
2023-02-25T01:57:47.172Z,97809.16
2023-02-25T02:00:17.270Z,97803.91
2023-02-25T02:02:46.897Z,97808.25
2023-02-25T02:05:14.660Z,97811.72
2023-02-25T02:07:41.470Z,97800.47
2023-02-25T02:10:08.571Z,97803.06
2023-02-25T02:12:39.501Z,97799.56
2023-02-25T02:15:12.793Z,97799.56
2023-02-25T02:17:43.934Z,97798.66
2023-02-25T02:20:20.728Z,97796.94
2023-02-25T02:22:55.000Z,97803.03
2023-02-25T02:25:36.554Z,97796.91
2023-02-25T02:28:42.999Z,97805.53
2023-02-25T02:31:40.378Z,97792.53
2023-02-25T02:34:35.772Z,97795.09
2023-02-25T02:37:07.654Z,97790.75
2023-02-25T02:39:55.949Z,97791.59
2023-02-25T02:42:33.459Z,97788.97
2023-02-25T02:45:02.943Z,97786.38
2023-02-25T02:47:40.345Z,97793.31
2023-02-25T02:50:21.747Z,97790.69
2023-02-25T02:52:52.260Z,97789.84
2023-02-25T02:55:31.546Z,97788.06
2023-02-25T02:58:07.014Z,97782.88
2023-02-25T03:00:41.349Z,97788.06
2023-02-25T03:03:17.285Z,97788.06
2023-02-25T03:05:49.293Z,97796.75
2023-02-25T03:08:23.298Z,97795.88
2023-02-25T03:10:50.191Z,97788.09
2023-02-25T03:13:17.109Z,97788.09
2023-02-25T03:15:44.762Z,97792.47
2023-02-25T03:18:20.451Z,97782.09
2023-02-25T03:20:49.589Z,97787.28
2023-02-25T03:23:27.495Z,97782.09
2023-02-25T03:26:06.556Z,97797.72
2023-02-25T03:28:34.691Z,97783.00
2023-02-25T03:31:21.683Z,97782.22
2023-02-25T03:33:56.418Z,97792.66
2023-02-25T03:36:31.539Z,97790.16
2023-02-25T03:39:02.965Z,97791.03
2023-02-25T03:41:35.474Z,97789.47
2023-02-25T03:44:04.968Z,97787.66
2023-02-25T03:46:34.484Z,97789.44
2023-02-25T03:49:04.359Z,97784.22
2023-02-25T03:51:34.723Z,97783.44
2023-02-25T03:54:02.094Z,97777.38
2023-02-25T03:56:28.733Z,97779.97
2023-02-25T03:58:55.215Z,97782.56
2023-02-25T04:01:29.068Z,97778.19
2023-02-25T04:03:55.570Z,97779.94
2023-02-25T04:06:23.746Z,97779.06
2023-02-25T04:08:51.072Z,97776.44
2023-02-25T04:11:17.634Z,97779.03
2023-02-25T04:13:44.186Z,97779.88
2023-02-25T04:16:10.746Z,97776.38
2023-02-25T04:18:37.649Z,97774.63
2023-02-25T04:21:06.436Z,97767.66
2023-02-25T04:23:34.202Z,97765.03
2023-02-25T04:26:01.033Z,97767.63
2023-02-25T04:28:27.551Z,97761.53
2023-02-25T04:30:54.229Z,97760.66
2023-02-25T04:33:20.747Z,97752.84
2023-02-25T04:35:47.259Z,97740.75
2023-02-25T04:38:13.760Z,97747.63
2023-02-25T04:40:40.459Z,97751.94
2023-02-25T04:43:07.071Z,97742.41
2023-02-25T04:45:33.607Z,97743.25
2023-02-25T04:48:00.253Z,97738.94
2023-02-25T04:50:26.782Z,97749.31
2023-02-25T04:52:53.333Z,97738.09
2023-02-25T04:55:20.088Z,97729.38
2023-02-25T04:57:46.661Z,97737.19
2023-02-25T05:00:20.843Z,97735.38
2023-02-25T05:02:48.283Z,97727.56
2023-02-25T05:05:14.872Z,97731.91
2023-02-25T05:07:41.434Z,97728.41
2023-02-25T05:10:10.178Z,97723.16
2023-02-25T05:12:36.876Z,97721.44
2023-02-25T05:15:05.476Z,97720.56
2023-02-25T05:17:32.888Z,97732.69
2023-02-25T05:19:59.435Z,97735.28
2023-02-25T05:22:27.319Z,97728.38
2023-02-25T05:24:54.451Z,97739.69
2023-02-25T05:27:21.042Z,97729.41
2023-02-25T05:29:47.599Z,97734.63
2023-02-25T05:32:14.288Z,97732.91
2023-02-25T05:34:41.808Z,97732.13
2023-02-25T05:37:08.351Z,97741.63
2023-02-25T05:39:34.859Z,97733.03
2023-02-25T05:42:01.540Z,97731.28
2023-02-25T05:44:28.004Z,97741.81
2023-02-25T05:46:54.521Z,97737.50
2023-02-25T05:49:21.023Z,97739.19
2023-02-25T05:51:49.332Z,97737.47
2023-02-25T05:54:16.017Z,97734.06
2023-02-25T05:56:44.342Z,97742.72
2023-02-25T05:59:12.016Z,97748.75
2023-02-25T06:01:38.680Z,97742.72
2023-02-25T06:04:05.264Z,97749.69
2023-02-25T06:06:32.115Z,97761.84
2023-02-25T06:08:58.699Z,97758.41
2023-02-25T06:11:27.849Z,97762.75
2023-02-25T06:13:55.622Z,97755.78
2023-02-25T06:16:25.964Z,97755.78
2023-02-25T06:18:52.851Z,97760.16
2023-02-25T06:21:19.740Z,97756.69
2023-02-25T06:23:46.275Z,97761.94
2023-02-25T06:26:14.457Z,97767.06
2023-02-25T06:28:41.791Z,97765.38
2023-02-25T06:31:10.563Z,97766.19
2023-02-25T06:33:38.128Z,97773.97
2023-02-25T06:36:05.578Z,97776.56
2023-02-25T06:38:33.783Z,97792.16
2023-02-25T06:41:14.280Z,97780.03
2023-02-25T06:43:41.890Z,97784.38
2023-02-25T06:46:10.909Z,97789.56
2023-02-25T06:48:37.509Z,97785.25
2023-02-25T06:51:09.203Z,97787.84
2023-02-25T06:53:37.556Z,97797.34
2023-02-25T06:56:04.426Z,97809.47
2023-02-25T06:58:31.027Z,97808.63
2023-02-25T07:00:57.598Z,97796.47
2023-02-25T07:03:24.166Z,97808.56
2023-02-25T07:05:50.701Z,97812.88
2023-02-25T07:08:17.215Z,97793.78
2023-02-25T07:10:43.766Z,97812.81
2023-02-25T07:13:10.988Z,97802.38
2023-02-25T07:15:37.585Z,97812.75
2023-02-25T07:18:04.432Z,97811.94
2023-02-25T07:20:31.147Z,97805.88
2023-02-25T07:22:57.797Z,97807.56
2023-02-25T07:25:24.586Z,97804.94
2023-02-25T07:27:51.121Z,97804.94
2023-02-25T07:30:17.824Z,97804.19
2023-02-25T07:32:44.479Z,97811.97
2023-02-25T07:35:11.198Z,97811.16
2023-02-25T07:37:37.912Z,97806.91
2023-02-25T07:40:14.047Z,97806.94
2023-02-25T07:42:41.309Z,97822.56
2023-02-25T07:45:09.608Z,97807.88
2023-02-25T07:47:37.112Z,97809.53
2023-02-25T07:50:05.475Z,97819.03
2023-02-25T07:52:31.968Z,97814.66
2023-02-25T07:54:58.481Z,97812.94
2023-02-25T07:57:25.111Z,97820.66
2023-02-25T07:59:51.631Z,97808.34
2023-02-25T08:02:18.112Z,97811.88
2023-02-25T08:04:44.653Z,97812.75
2023-02-25T08:07:11.246Z,97814.44
2023-02-25T08:09:38.101Z,97807.47
2023-02-25T08:12:04.607Z,97819.56
2023-02-25T08:14:31.130Z,97803.03
2023-02-25T08:16:57.873Z,97807.34
2023-02-25T08:19:24.622Z,97810.06
2023-02-25T08:21:51.184Z,97804.88
2023-02-25T08:24:20.670Z,97809.25
2023-02-25T08:26:47.852Z,97808.44
2023-02-25T08:29:14.880Z,97820.56
2023-02-25T08:31:41.688Z,97827.53
2023-02-25T08:34:08.453Z,97826.72
2023-02-25T08:36:36.250Z,97837.94
2023-02-25T08:39:02.867Z,97830.13
2023-02-25T08:41:29.905Z,97833.56
2023-02-25T08:43:58.698Z,97839.63
2023-02-25T08:46:27.589Z,97833.53
2023-02-25T08:48:54.971Z,97836.06
2023-02-25T08:51:24.416Z,97843.13
2023-02-25T08:53:52.313Z,97850.03
2023-02-25T08:56:18.858Z,97840.38
2023-02-25T08:58:45.429Z,97853.47
2023-02-25T09:01:16.725Z,97854.28
2023-02-25T09:03:55.028Z,97836.97
2023-02-25T09:06:25.259Z,97853.53
2023-02-25T09:08:52.681Z,97853.53
2023-02-25T09:11:20.358Z,97852.66
2023-02-25T09:13:46.962Z,97859.63
2023-02-25T09:16:17.705Z,97864.75
2023-02-25T09:18:48.615Z,97862.16
2023-02-25T09:21:15.879Z,97869.94
2023-02-25T09:23:42.851Z,97868.22
2023-02-25T09:26:10.059Z,97871.66
2023-02-25T09:28:36.884Z,97864.66
2023-02-25T09:31:04.103Z,97866.34
2023-02-25T09:33:31.891Z,97877.69
2023-02-25T09:36:13.884Z,97876.75
2023-02-25T09:38:41.907Z,97880.34
2023-02-25T09:41:33.590Z,97877.81
2023-02-25T09:44:09.542Z,97897.75
2023-02-25T09:46:41.655Z,97895.19
2023-02-25T09:49:15.276Z,97899.50
2023-02-25T09:51:48.079Z,97900.31
2023-02-25T09:54:25.467Z,97905.44
2023-02-25T09:56:54.441Z,97905.38
2023-02-25T09:59:24.613Z,97921.03
2023-02-25T10:01:59.225Z,97920.16
2023-02-25T10:04:35.254Z,97908.84
2023-02-25T10:07:08.643Z,97932.16
2023-02-25T10:09:58.125Z,97919.84
2023-02-25T10:12:34.350Z,97933.00
2023-02-25T10:15:30.379Z,97933.75
2023-02-25T10:18:14.083Z,97946.03
2023-02-25T10:20:52.222Z,97940.78
2023-02-25T10:23:35.651Z,97945.19
2023-02-25T10:26:15.560Z,97945.00
2023-02-25T10:28:45.355Z,97937.84
2023-02-25T10:31:18.615Z,97931.56
2023-02-25T10:33:48.387Z,97935.88
2023-02-25T10:36:25.713Z,97936.34
2023-02-25T10:38:53.404Z,97934.91
2023-02-25T10:41:23.070Z,97944.03
2023-02-25T10:43:50.882Z,97935.13
2023-02-25T10:46:24.515Z,97940.44
2023-02-25T10:48:57.606Z,97934.91
2023-02-25T10:51:25.967Z,97950.91
2023-02-25T10:53:52.586Z,97952.97
2023-02-25T10:56:20.942Z,97953.13
2023-02-25T10:59:06.185Z,97955.81
2023-02-25T11:01:39.522Z,97952.25
2023-02-25T11:04:12.440Z,97944.47
2023-02-25T11:06:41.882Z,97950.56
2023-02-25T11:09:35.330Z,97963.72
2023-02-25T11:12:07.979Z,97965.50
2023-02-25T11:14:37.446Z,97968.28
2023-02-25T11:17:12.286Z,97962.97
2023-02-25T11:19:41.915Z,97969.47
2023-02-25T11:22:16.508Z,97971.06
2023-02-25T11:24:43.374Z,97967.34
2023-02-25T11:27:26.620Z,97962.97
2023-02-25T11:29:54.325Z,97966.94
2023-02-25T11:32:22.685Z,97979.69
2023-02-25T11:34:52.502Z,97953.66
2023-02-25T11:37:40.772Z,97979.56
2023-02-25T11:40:31.873Z,97975.03
2023-02-25T11:43:05.999Z,97978.16
2023-02-25T11:45:34.899Z,97965.28
2023-02-25T11:48:04.598Z,97980.09
2023-02-25T11:51:09.678Z,98005.13
2023-02-25T11:53:36.378Z,98007.00
2023-02-25T11:56:15.384Z,98000.88
2023-02-25T11:59:00.434Z,98009.81
2023-02-25T12:01:57.857Z,98015.94
2023-02-25T12:04:54.468Z,98020.31
2023-02-25T12:08:12.368Z,98017.94
2023-02-25T12:11:21.119Z,98016.16
2023-02-25T12:14:18.331Z,98033.38
2023-02-25T12:16:57.019Z,98030.78
2023-02-25T12:19:54.285Z,98031.75
2023-02-25T12:22:42.500Z,98034.25
2023-02-25T12:25:15.233Z,98040.34
2023-02-25T12:28:22.813Z,98039.34
2023-02-25T12:31:07.270Z,98041.09
2023-02-25T12:34:03.218Z,98030.72
2023-02-25T12:36:51.851Z,98050.78
2023-02-25T12:39:48.604Z,98043.91
2023-02-25T12:42:25.248Z,98044.69
2023-02-25T12:45:29.518Z,98056.06
2023-02-25T12:48:04.904Z,98049.22
2023-02-25T12:50:58.463Z,98052.69
2023-02-25T12:53:51.861Z,98057.06
2023-02-25T12:56:40.376Z,98076.19
2023-02-25T12:59:06.835Z,98062.31
2023-02-25T13:02:02.138Z,98074.34
2023-02-25T13:04:52.834Z,98081.28
2023-02-25T13:07:44.028Z,98082.13
2023-02-25T13:10:35.656Z,98085.69
2023-02-25T13:13:18.343Z,98105.56
2023-02-25T13:16:06.521Z,98104.78
2023-02-25T13:18:42.529Z,98112.59
2023-02-25T13:21:35.394Z,98119.56
2023-02-25T13:24:15.274Z,98115.22
2023-02-25T13:27:00.094Z,98106.56
2023-02-25T13:29:56.259Z,98117.84
2023-02-25T13:32:34.884Z,98119.56
2023-02-25T13:35:10.875Z,98129.94
2023-02-25T13:37:58.527Z,98115.22
2023-02-25T13:40:43.631Z,98122.16
2023-02-25T13:43:54.563Z,98136.88
2023-02-25T13:46:50.894Z,98130.78
2023-02-25T13:49:49.763Z,98136.00
2023-02-25T13:52:41.861Z,98144.66
2023-02-25T13:55:36.978Z,98150.75
2023-02-25T13:58:21.974Z,98155.91
2023-02-25T14:01:13.438Z,98155.94
2023-02-25T14:03:58.708Z,98156.78
2023-02-25T14:07:01.918Z,98173.25
2023-02-25T14:09:40.229Z,98182.81
2023-02-25T14:12:48.598Z,98181.91
2023-02-25T14:15:51.948Z,98192.31
2023-02-25T14:18:34.263Z,98194.06
2023-02-25T14:21:15.584Z,98196.66
2023-02-25T14:23:52.902Z,98199.25
2023-02-25T14:26:22.865Z,98207.91
2023-02-25T14:29:06.662Z,98208.78
2023-02-25T14:31:49.596Z,98217.44
2023-02-25T14:34:37.947Z,98213.97
2023-02-25T14:37:20.362Z,98229.56
2023-02-25T14:40:23.531Z,98226.06
2023-02-25T14:43:05.126Z,98230.44
2023-02-25T14:45:37.645Z,98225.22
2023-02-25T14:48:09.566Z,98239.09
2023-02-25T14:50:54.862Z,98237.34
2023-02-25T14:53:54.906Z,98246.91
2023-02-25T14:56:47.819Z,98253.78
2023-02-25T14:59:41.958Z,98239.97
2023-02-25T15:02:26.537Z,98259.91
2023-02-25T15:05:11.852Z,98263.31
2023-02-25T15:08:06.251Z,98265.06
2023-02-25T15:10:49.176Z,98280.66
2023-02-25T15:13:29.091Z,98278.06
2023-02-25T15:16:14.465Z,98285.00
2023-02-25T15:19:00.684Z,98279.78
2023-02-25T15:21:47.733Z,98292.75
2023-02-25T15:24:26.119Z,98291.03
2023-02-25T15:26:53.194Z,98294.44
2023-02-25T15:29:28.744Z,98319.56
2023-02-25T15:32:23.404Z,98315.22
2023-02-25T15:35:00.619Z,98321.28
2023-02-25T15:37:58.638Z,98332.47
2023-02-25T15:40:33.965Z,98331.59
2023-02-25T15:43:01.739Z,98329.88
2023-02-25T15:45:28.377Z,98332.47
2023-02-25T15:48:19.375Z,98335.06
2023-02-25T15:50:46.466Z,98344.59
2023-02-25T15:53:23.240Z,98348.00
2023-02-25T15:55:52.052Z,98362.69
2023-02-25T15:58:24.607Z,98360.03
2023-02-25T16:01:00.404Z,98365.22
2023-02-25T16:03:36.221Z,98373.00
2023-02-25T16:06:22.864Z,98381.50
2023-02-25T16:08:55.179Z,98382.44
2023-02-25T16:11:24.827Z,98384.97
2023-02-25T16:13:52.863Z,98397.16
2023-02-25T16:16:21.805Z,98396.25
2023-02-25T16:18:50.682Z,98407.47
2023-02-25T16:21:28.864Z,98410.84
2023-02-25T16:23:55.486Z,98415.09
2023-02-25T16:26:44.327Z,98412.38
2023-02-25T16:29:28.875Z,98420.25
2023-02-25T16:32:04.597Z,98417.66
2023-02-25T16:34:45.189Z,98420.31
2023-02-25T16:37:30.117Z,98434.94
2023-02-25T16:39:57.824Z,98437.50
2023-02-25T16:42:25.982Z,98440.00
2023-02-25T16:45:26.902Z,98442.63
2023-02-25T16:47:57.550Z,98457.25
2023-02-25T16:50:25.576Z,98452.88
2023-02-25T16:52:53.566Z,98447.75
2023-02-25T16:55:30.440Z,98458.88
2023-02-25T16:58:25.456Z,98464.09
2023-02-25T17:00:58.217Z,98470.97
2023-02-25T17:03:34.009Z,98457.94
2023-02-25T17:06:14.584Z,98465.66
2023-02-25T17:08:45.633Z,98488.94
2023-02-25T17:11:17.292Z,98484.66
2023-02-25T17:13:45.616Z,98487.22
2023-02-25T17:16:28.506Z,98502.72
2023-02-25T17:19:05.320Z,98499.22
2023-02-25T17:21:44.324Z,98506.19
2023-02-25T17:24:20.905Z,98512.16
2023-02-25T17:26:50.926Z,98502.59
2023-02-25T17:29:18.496Z,98499.16
2023-02-25T17:31:51.125Z,98523.31
2023-02-25T17:34:38.195Z,98508.63
2023-02-25T17:37:07.234Z,98524.16
2023-02-25T17:39:34.156Z,98531.13
2023-02-25T17:42:00.741Z,98537.88
2023-02-25T17:44:36.511Z,98537.03
2023-02-25T17:47:05.079Z,98544.84
2023-02-25T17:49:34.837Z,98546.59
2023-02-25T17:52:08.104Z,98549.13
2023-02-25T17:54:37.454Z,98551.72
2023-02-25T17:57:16.498Z,98553.47
2023-02-25T17:59:48.794Z,98559.44
2023-02-25T18:02:32.868Z,98561.97
2023-02-25T18:05:21.664Z,98567.22
2023-02-25T18:08:21.864Z,98569.78
2023-02-25T18:10:57.987Z,98574.94
2023-02-25T18:13:28.146Z,98572.31
2023-02-25T18:16:29.923Z,98579.19
2023-02-25T18:18:57.179Z,98588.75
2023-02-25T18:21:23.990Z,98587.72
2023-02-25T18:23:51.217Z,98592.91
2023-02-25T18:26:21.551Z,98594.78
2023-02-25T18:28:48.114Z,98595.56
2023-02-25T18:31:15.551Z,98599.81
2023-02-25T18:33:42.358Z,98605.91
2023-02-25T18:36:09.489Z,98613.66
2023-02-25T18:38:37.771Z,98616.38
2023-02-25T18:41:07.830Z,98619.84
2023-02-25T18:43:39.002Z,98627.69
2023-02-25T18:46:05.569Z,98645.75
2023-02-25T18:48:32.590Z,98635.31
2023-02-25T18:50:59.208Z,98646.66
2023-02-25T18:53:26.901Z,98653.53
2023-02-25T18:55:56.228Z,98660.50
2023-02-25T18:58:23.387Z,98653.53
2023-02-25T19:00:53.368Z,98656.19
2023-02-25T19:03:29.940Z,98666.50
2023-02-25T19:05:56.995Z,98672.63
2023-02-25T19:08:24.026Z,98675.97
2023-02-25T19:10:52.405Z,98677.72
2023-02-25T19:13:23.327Z,98680.41
2023-02-25T19:15:49.928Z,98690.66
2023-02-25T19:18:17.006Z,98683.75
2023-02-25T19:20:44.560Z,98692.53
2023-02-25T19:23:12.789Z,98689.88
2023-02-25T19:25:40.663Z,98692.56
2023-02-25T19:28:07.884Z,98687.31
2023-02-25T19:30:37.514Z,98694.16
2023-02-25T19:33:05.094Z,98695.81
2023-02-25T19:35:34.769Z,98708.72
2023-02-25T19:38:01.908Z,98719.22
2023-02-25T19:40:29.540Z,98720.91
2023-02-25T19:42:56.444Z,98720.16
2023-02-25T19:45:24.736Z,98734.75
2023-02-25T19:47:52.772Z,98726.91
2023-02-25T19:50:20.726Z,98730.44
2023-02-25T19:52:47.665Z,98746.19
2023-02-25T19:55:15.023Z,98745.94
2023-02-25T19:57:42.200Z,98753.91
2023-02-25T20:00:14.044Z,98755.44
2023-02-25T20:02:41.728Z,98757.28
2023-02-25T20:05:09.690Z,98766.66
2023-02-25T20:07:36.279Z,98770.91
2023-02-25T20:10:03.117Z,98786.47
2023-02-25T20:12:29.621Z,98785.56
2023-02-25T20:14:57.123Z,98788.94
2023-02-25T20:17:25.122Z,98784.75
2023-02-25T20:19:52.521Z,98781.25
2023-02-25T20:22:21.429Z,98793.34
2023-02-25T20:24:48.907Z,98795.13
2023-02-25T20:27:15.483Z,98792.59
2023-02-25T20:29:41.983Z,98809.81
2023-02-25T20:32:08.894Z,98808.78
2023-02-25T20:34:35.651Z,98809.66
2023-02-25T20:37:06.570Z,98814.78
2023-02-25T20:39:38.853Z,98831.16
2023-02-25T20:42:10.279Z,98826.00
2023-02-25T20:44:37.106Z,98832.94
2023-02-25T20:47:04.035Z,98838.94
2023-02-25T20:49:31.119Z,98843.22
2023-02-25T20:51:57.922Z,98850.25
2023-02-25T20:54:24.436Z,98851.81
2023-02-25T20:56:51.305Z,98851.00
2023-02-25T20:59:18.978Z,98850.94
2023-02-25T21:01:45.554Z,98866.47
2023-02-25T21:04:12.135Z,98857.06
2023-02-25T21:06:39.371Z,98875.13
2023-02-25T21:09:06.768Z,98863.91
2023-02-25T21:11:33.516Z,98880.38
2023-02-25T21:14:00.113Z,98875.13
2023-02-25T21:16:27.072Z,98887.09
2023-02-25T21:18:53.926Z,98889.78
2023-02-25T21:21:21.885Z,98885.53
2023-02-25T21:23:50.473Z,98887.94
2023-02-25T21:26:17.000Z,98893.97
2023-02-25T21:28:43.821Z,98898.16
2023-02-25T21:31:12.287Z,98900.78
2023-02-25T21:33:39.656Z,98911.97
2023-02-25T21:36:08.398Z,98914.59
2023-02-25T21:38:36.409Z,98912.75
2023-02-25T21:41:11.555Z,98909.09
2023-02-25T21:43:38.398Z,98912.53
2023-02-25T21:46:07.836Z,98913.50
2023-02-25T21:48:34.516Z,98915.22
2023-02-25T21:51:02.133Z,98919.44
2023-02-25T21:53:28.971Z,98921.22
2023-02-25T21:55:56.238Z,98921.09
2023-02-25T21:58:23.304Z,98921.13
2023-02-25T22:00:50.532Z,98922.56
2023-02-25T22:03:17.070Z,98927.56
2023-02-25T22:05:46.179Z,98934.47
2023-02-25T22:08:14.144Z,98941.47
2023-02-25T22:10:41.161Z,98942.91
2023-02-25T22:13:08.438Z,98949.81
2023-02-25T22:15:35.485Z,98956.66
2023-02-25T22:18:02.166Z,98960.03
2023-02-25T22:20:28.769Z,98955.66
2023-02-25T22:22:58.022Z,98954.88
2023-02-25T22:25:24.580Z,98961.81
2023-02-25T22:27:52.221Z,98963.63
2023-02-25T22:30:19.256Z,98964.19
2023-02-25T22:32:45.789Z,98966.16
2023-02-25T22:35:12.412Z,98965.22
2023-02-25T22:37:38.993Z,98974.75
2023-02-25T22:40:06.134Z,98966.75
2023-02-25T22:42:32.655Z,98979.97
2023-02-25T22:44:59.174Z,98984.94
2023-02-25T22:47:26.057Z,98988.50
2023-02-25T22:49:52.613Z,98988.53
2023-02-25T22:52:19.185Z,98989.31
2023-02-25T22:54:46.296Z,98991.00
2023-02-25T22:57:12.820Z,98995.34
2023-02-25T22:59:39.394Z,98998.81
2023-02-25T23:02:05.948Z,99015.31
2023-02-25T23:04:32.933Z,99010.94
2023-02-25T23:07:01.000Z,99015.94
2023-02-25T23:09:27.608Z,99021.44
2023-02-25T23:11:54.692Z,99018.66
2023-02-25T23:14:21.281Z,99017.78
2023-02-25T23:16:47.850Z,99028.97
2023-02-25T23:19:17.376Z,99022.06
2023-02-25T23:21:44.463Z,99025.47
2023-02-25T23:24:18.684Z,99028.00
2023-02-25T23:26:47.507Z,99034.88
2023-02-25T23:29:14.540Z,99027.78
2023-02-25T23:31:47.108Z,99043.34
2023-02-25T23:34:18.902Z,99040.81
2023-02-25T23:36:45.585Z,99049.59
2023-02-25T23:39:13.916Z,99058.06
2023-02-25T23:41:40.817Z,99061.50
2023-02-25T23:44:10.915Z,99068.59
2023-02-25T23:46:37.633Z,99071.81
2023-02-25T23:49:06.953Z,99072.78
2023-02-25T23:51:34.260Z,99070.97
2023-02-25T23:54:03.803Z,99069.97
2023-02-25T23:56:31.345Z,99079.63
2023-02-25T23:58:58.494Z,99080.81
